sensor_id;sensor_type;location;lat;lon;timestamp;P1;durP1;ratioP1;P2;durP2;ratioP2
28834;SDS011;15969;51.536;11.884;2023-02-05T00:02:18;8.00;;;4.33;;
28834;SDS011;15969;51.536;11.884;2023-02-05T00:04:43;5.60;;;3.80;;
28834;SDS011;15969;51.536;11.884;2023-02-05T00:07:09;5.80;;;4.23;;
28834;SDS011;15969;51.536;11.884;2023-02-05T00:09:35;4.97;;;4.20;;
28834;SDS011;15969;51.536;11.884;2023-02-05T00:12:00;5.70;;;4.03;;
28834;SDS011;15969;51.536;11.884;2023-02-05T00:14:26;6.90;;;4.13;;
28834;SDS011;15969;51.536;11.884;2023-02-05T00:16:52;5.67;;;3.87;;
28834;SDS011;15969;51.536;11.884;2023-02-05T00:19:18;7.10;;;3.73;;
28834;SDS011;15969;51.536;11.884;2023-02-05T00:21:44;5.43;;;3.23;;
28834;SDS011;15969;51.536;11.884;2023-02-05T00:24:09;5.13;;;3.27;;
28834;SDS011;15969;51.536;11.884;2023-02-05T00:26:36;8.03;;;2.93;;
28834;SDS011;15969;51.536;11.884;2023-02-05T00:29:02;5.57;;;3.23;;
28834;SDS011;15969;51.536;11.884;2023-02-05T00:31:28;3.83;;;2.87;;
28834;SDS011;15969;51.536;11.884;2023-02-05T00:33:54;4.53;;;3.50;;
28834;SDS011;15969;51.536;11.884;2023-02-05T00:36:20;3.77;;;3.23;;
28834;SDS011;15969;51.536;11.884;2023-02-05T00:38:47;3.77;;;2.70;;
28834;SDS011;15969;51.536;11.884;2023-02-05T00:41:13;3.60;;;2.63;;
28834;SDS011;15969;51.536;11.884;2023-02-05T00:43:40;6.57;;;2.87;;
28834;SDS011;15969;51.536;11.884;2023-02-05T00:46:07;3.30;;;2.80;;
28834;SDS011;15969;51.536;11.884;2023-02-05T00:48:34;2.80;;;2.50;;
28834;SDS011;15969;51.536;11.884;2023-02-05T00:51:00;4.03;;;2.50;;
28834;SDS011;15969;51.536;11.884;2023-02-05T00:53:26;4.73;;;2.53;;
28834;SDS011;15969;51.536;11.884;2023-02-05T00:55:52;5.13;;;2.83;;
28834;SDS011;15969;51.536;11.884;2023-02-05T00:58:18;4.10;;;2.83;;
28834;SDS011;15969;51.536;11.884;2023-02-05T01:00:44;4.60;;;2.73;;
28834;SDS011;15969;51.536;11.884;2023-02-05T01:03:10;3.03;;;2.60;;
28834;SDS011;15969;51.536;11.884;2023-02-05T01:05:36;2.90;;;2.50;;
28834;SDS011;15969;51.536;11.884;2023-02-05T01:08:03;4.90;;;2.53;;
28834;SDS011;15969;51.536;11.884;2023-02-05T01:10:31;4.53;;;2.63;;
28834;SDS011;15969;51.536;11.884;2023-02-05T01:12:56;4.17;;;2.40;;
28834;SDS011;15969;51.536;11.884;2023-02-05T01:15:22;4.23;;;2.37;;
28834;SDS011;15969;51.536;11.884;2023-02-05T01:17:48;3.20;;;2.60;;
28834;SDS011;15969;51.536;11.884;2023-02-05T01:20:14;2.90;;;2.50;;
28834;SDS011;15969;51.536;11.884;2023-02-05T01:22:40;2.37;;;2.10;;
28834;SDS011;15969;51.536;11.884;2023-02-05T01:25:07;4.17;;;2.63;;
28834;SDS011;15969;51.536;11.884;2023-02-05T01:27:33;3.30;;;2.47;;
28834;SDS011;15969;51.536;11.884;2023-02-05T01:30:00;5.47;;;2.50;;
28834;SDS011;15969;51.536;11.884;2023-02-05T01:32:28;3.57;;;2.40;;
28834;SDS011;15969;51.536;11.884;2023-02-05T01:34:53;4.73;;;2.70;;
28834;SDS011;15969;51.536;11.884;2023-02-05T01:37:20;3.43;;;2.20;;
28834;SDS011;15969;51.536;11.884;2023-02-05T01:39:46;2.27;;;2.07;;
28834;SDS011;15969;51.536;11.884;2023-02-05T01:42:16;3.17;;;2.50;;
28834;SDS011;15969;51.536;11.884;2023-02-05T01:47:50;2.93;;;2.10;;
28834;SDS011;15969;51.536;11.884;2023-02-05T01:50:28;3.10;;;2.00;;
28834;SDS011;15969;51.536;11.884;2023-02-05T01:53:10;3.57;;;2.10;;
28834;SDS011;15969;51.536;11.884;2023-02-05T01:55:47;3.03;;;2.27;;
28834;SDS011;15969;51.536;11.884;2023-02-05T01:58:22;3.30;;;2.30;;
28834;SDS011;15969;51.536;11.884;2023-02-05T02:00:52;2.70;;;1.97;;
28834;SDS011;15969;51.536;11.884;2023-02-05T02:03:17;4.03;;;2.27;;
28834;SDS011;15969;51.536;11.884;2023-02-05T02:05:43;2.77;;;2.10;;
28834;SDS011;15969;51.536;11.884;2023-02-05T02:08:10;4.90;;;2.20;;
28834;SDS011;15969;51.536;11.884;2023-02-05T02:10:37;3.67;;;2.13;;
28834;SDS011;15969;51.536;11.884;2023-02-05T02:13:04;3.10;;;2.20;;
28834;SDS011;15969;51.536;11.884;2023-02-05T02:15:30;3.03;;;2.30;;
28834;SDS011;15969;51.536;11.884;2023-02-05T02:17:58;3.37;;;1.97;;
28834;SDS011;15969;51.536;11.884;2023-02-05T02:20:45;2.93;;;2.40;;
28834;SDS011;15969;51.536;11.884;2023-02-05T02:23:26;5.43;;;2.10;;
28834;SDS011;15969;51.536;11.884;2023-02-05T02:30:04;4.27;;;2.50;;
28834;SDS011;15969;51.536;11.884;2023-02-05T02:32:36;2.97;;;2.20;;
28834;SDS011;15969;51.536;11.884;2023-02-05T02:35:26;2.57;;;2.20;;
28834;SDS011;15969;51.536;11.884;2023-02-05T02:40:59;6.63;;;2.40;;
28834;SDS011;15969;51.536;11.884;2023-02-05T02:43:47;4.13;;;2.67;;
28834;SDS011;15969;51.536;11.884;2023-02-05T02:46:23;2.30;;;2.10;;
28834;SDS011;15969;51.536;11.884;2023-02-05T02:48:55;4.70;;;2.40;;
28834;SDS011;15969;51.536;11.884;2023-02-05T02:51:27;4.07;;;2.37;;
28834;SDS011;15969;51.536;11.884;2023-02-05T02:53:55;4.00;;;2.50;;
28834;SDS011;15969;51.536;11.884;2023-02-05T02:56:23;5.63;;;2.53;;
28834;SDS011;15969;51.536;11.884;2023-02-05T02:58:53;4.37;;;2.90;;
28834;SDS011;15969;51.536;11.884;2023-02-05T03:01:33;5.17;;;2.33;;
28834;SDS011;15969;51.536;11.884;2023-02-05T03:04:03;3.53;;;2.20;;
28834;SDS011;15969;51.536;11.884;2023-02-05T03:06:34;3.97;;;2.50;;
28834;SDS011;15969;51.536;11.884;2023-02-05T03:09:45;4.10;;;2.70;;
28834;SDS011;15969;51.536;11.884;2023-02-05T03:11:56;4.17;;;2.80;;
28834;SDS011;15969;51.536;11.884;2023-02-05T03:14:23;3.27;;;2.33;;
28834;SDS011;15969;51.536;11.884;2023-02-05T03:16:48;3.17;;;2.50;;
28834;SDS011;15969;51.536;11.884;2023-02-05T03:19:16;4.03;;;2.83;;
28834;SDS011;15969;51.536;11.884;2023-02-05T03:21:42;3.57;;;2.13;;
28834;SDS011;15969;51.536;11.884;2023-02-05T03:24:14;4.00;;;2.80;;
28834;SDS011;15969;51.536;11.884;2023-02-05T03:26:41;4.90;;;2.80;;
28834;SDS011;15969;51.536;11.884;2023-02-05T03:29:09;4.60;;;2.50;;
28834;SDS011;15969;51.536;11.884;2023-02-05T03:34:39;3.60;;;2.40;;
28834;SDS011;15969;51.536;11.884;2023-02-05T03:37:38;3.80;;;2.27;;
28834;SDS011;15969;51.536;11.884;2023-02-05T03:40:42;2.97;;;2.20;;
28834;SDS011;15969;51.536;11.884;2023-02-05T03:46:16;4.93;;;2.00;;
28834;SDS011;15969;51.536;11.884;2023-02-05T03:48:59;3.53;;;2.63;;
28834;SDS011;15969;51.536;11.884;2023-02-05T03:51:36;3.67;;;2.50;;
28834;SDS011;15969;51.536;11.884;2023-02-05T03:54:49;2.57;;;2.00;;
28834;SDS011;15969;51.536;11.884;2023-02-05T03:57:26;2.77;;;2.13;;
28834;SDS011;15969;51.536;11.884;2023-02-05T04:00:03;3.67;;;2.53;;
28834;SDS011;15969;51.536;11.884;2023-02-05T04:02:30;3.73;;;2.43;;
28834;SDS011;15969;51.536;11.884;2023-02-05T04:04:56;5.60;;;2.30;;
28834;SDS011;15969;51.536;11.884;2023-02-05T04:07:22;3.27;;;2.37;;
28834;SDS011;15969;51.536;11.884;2023-02-05T04:09:48;2.50;;;2.30;;
28834;SDS011;15969;51.536;11.884;2023-02-05T04:12:13;3.20;;;2.07;;
28834;SDS011;15969;51.536;11.884;2023-02-05T04:14:39;2.80;;;2.23;;
28834;SDS011;15969;51.536;11.884;2023-02-05T04:17:04;2.97;;;1.87;;
28834;SDS011;15969;51.536;11.884;2023-02-05T04:19:31;2.33;;;1.93;;
28834;SDS011;15969;51.536;11.884;2023-02-05T04:21:57;4.93;;;2.37;;
28834;SDS011;15969;51.536;11.884;2023-02-05T04:24:22;5.90;;;2.30;;
28834;SDS011;15969;51.536;11.884;2023-02-05T04:26:49;3.27;;;2.20;;
28834;SDS011;15969;51.536;11.884;2023-02-05T04:29:15;3.70;;;2.30;;
28834;SDS011;15969;51.536;11.884;2023-02-05T04:31:40;3.03;;;1.93;;
28834;SDS011;15969;51.536;11.884;2023-02-05T04:34:06;3.53;;;1.70;;
28834;SDS011;15969;51.536;11.884;2023-02-05T04:36:32;2.77;;;1.93;;
28834;SDS011;15969;51.536;11.884;2023-02-05T04:38:57;2.77;;;2.17;;
28834;SDS011;15969;51.536;11.884;2023-02-05T04:41:23;4.20;;;1.97;;
28834;SDS011;15969;51.536;11.884;2023-02-05T04:43:49;2.80;;;2.07;;
28834;SDS011;15969;51.536;11.884;2023-02-05T04:46:14;2.87;;;2.20;;
28834;SDS011;15969;51.536;11.884;2023-02-05T04:48:40;3.40;;;1.77;;
28834;SDS011;15969;51.536;11.884;2023-02-05T04:51:06;3.90;;;2.47;;
28834;SDS011;15969;51.536;11.884;2023-02-05T04:53:34;4.37;;;2.33;;
28834;SDS011;15969;51.536;11.884;2023-02-05T04:56:08;3.23;;;1.77;;
28834;SDS011;15969;51.536;11.884;2023-02-05T04:58:38;2.40;;;1.97;;
28834;SDS011;15969;51.536;11.884;2023-02-05T05:01:09;7.87;;;2.97;;
28834;SDS011;15969;51.536;11.884;2023-02-05T05:03:40;3.47;;;2.10;;
28834;SDS011;15969;51.536;11.884;2023-02-05T05:06:06;3.87;;;1.90;;
28834;SDS011;15969;51.536;11.884;2023-02-05T05:08:32;4.77;;;2.43;;
28834;SDS011;15969;51.536;11.884;2023-02-05T05:10:58;3.77;;;2.30;;
28834;SDS011;15969;51.536;11.884;2023-02-05T05:13:24;4.77;;;1.93;;
28834;SDS011;15969;51.536;11.884;2023-02-05T05:15:54;2.80;;;2.07;;
28834;SDS011;15969;51.536;11.884;2023-02-05T05:18:20;2.43;;;2.00;;
28834;SDS011;15969;51.536;11.884;2023-02-05T05:20:46;5.07;;;2.07;;
28834;SDS011;15969;51.536;11.884;2023-02-05T05:23:12;3.90;;;2.20;;
28834;SDS011;15969;51.536;11.884;2023-02-05T05:25:41;2.47;;;1.90;;
28834;SDS011;15969;51.536;11.884;2023-02-05T05:28:08;5.70;;;2.00;;
28834;SDS011;15969;51.536;11.884;2023-02-05T05:30:37;3.47;;;2.37;;
28834;SDS011;15969;51.536;11.884;2023-02-05T05:33:03;7.00;;;2.10;;
28834;SDS011;15969;51.536;11.884;2023-02-05T05:35:29;2.13;;;1.90;;
28834;SDS011;15969;51.536;11.884;2023-02-05T05:37:55;2.40;;;2.10;;
28834;SDS011;15969;51.536;11.884;2023-02-05T05:40:22;2.83;;;2.30;;
28834;SDS011;15969;51.536;11.884;2023-02-05T05:43:14;5.03;;;2.60;;
28834;SDS011;15969;51.536;11.884;2023-02-05T05:46:00;4.93;;;2.00;;
28834;SDS011;15969;51.536;11.884;2023-02-05T05:48:26;2.40;;;2.10;;
28834;SDS011;15969;51.536;11.884;2023-02-05T05:50:52;2.30;;;1.80;;
28834;SDS011;15969;51.536;11.884;2023-02-05T05:53:18;2.37;;;1.90;;
28834;SDS011;15969;51.536;11.884;2023-02-05T05:55:44;2.77;;;1.93;;
28834;SDS011;15969;51.536;11.884;2023-02-05T05:58:10;3.33;;;2.10;;
28834;SDS011;15969;51.536;11.884;2023-02-05T06:00:36;3.30;;;1.97;;
28834;SDS011;15969;51.536;11.884;2023-02-05T06:03:04;5.30;;;2.87;;
28834;SDS011;15969;51.536;11.884;2023-02-05T06:05:30;2.67;;;2.03;;
28834;SDS011;15969;51.536;11.884;2023-02-05T06:07:56;2.67;;;1.80;;
28834;SDS011;15969;51.536;11.884;2023-02-05T06:10:21;3.47;;;2.00;;
28834;SDS011;15969;51.536;11.884;2023-02-05T06:12:47;5.27;;;2.20;;
28834;SDS011;15969;51.536;11.884;2023-02-05T06:15:14;3.53;;;2.10;;
28834;SDS011;15969;51.536;11.884;2023-02-05T06:17:40;3.87;;;2.30;;
28834;SDS011;15969;51.536;11.884;2023-02-05T06:20:06;5.17;;;2.00;;
28834;SDS011;15969;51.536;11.884;2023-02-05T06:22:33;2.37;;;2.03;;
28834;SDS011;15969;51.536;11.884;2023-02-05T06:24:59;3.07;;;2.30;;
28834;SDS011;15969;51.536;11.884;2023-02-05T06:27:26;2.93;;;2.00;;
28834;SDS011;15969;51.536;11.884;2023-02-05T06:29:52;4.57;;;2.20;;
28834;SDS011;15969;51.536;11.884;2023-02-05T06:32:17;2.27;;;1.77;;
28834;SDS011;15969;51.536;11.884;2023-02-05T06:34:43;3.13;;;1.77;;
28834;SDS011;15969;51.536;11.884;2023-02-05T06:37:09;4.00;;;2.07;;
28834;SDS011;15969;51.536;11.884;2023-02-05T06:39:35;2.10;;;1.77;;
28834;SDS011;15969;51.536;11.884;2023-02-05T06:42:01;3.33;;;1.90;;
28834;SDS011;15969;51.536;11.884;2023-02-05T06:44:27;3.73;;;1.77;;
28834;SDS011;15969;51.536;11.884;2023-02-05T06:46:52;2.60;;;2.00;;
28834;SDS011;15969;51.536;11.884;2023-02-05T06:49:18;2.37;;;2.07;;
28834;SDS011;15969;51.536;11.884;2023-02-05T06:51:44;2.83;;;2.07;;
28834;SDS011;15969;51.536;11.884;2023-02-05T06:54:09;3.60;;;1.80;;
28834;SDS011;15969;51.536;11.884;2023-02-05T06:56:35;3.90;;;2.27;;
28834;SDS011;15969;51.536;11.884;2023-02-05T06:59:01;3.60;;;2.50;;
28834;SDS011;15969;51.536;11.884;2023-02-05T07:01:26;2.30;;;1.67;;
28834;SDS011;15969;51.536;11.884;2023-02-05T07:03:52;2.87;;;2.17;;
28834;SDS011;15969;51.536;11.884;2023-02-05T07:06:20;6.00;;;2.37;;
28834;SDS011;15969;51.536;11.884;2023-02-05T07:08:50;3.17;;;1.97;;
28834;SDS011;15969;51.536;11.884;2023-02-05T07:11:16;4.67;;;2.50;;
28834;SDS011;15969;51.536;11.884;2023-02-05T07:13:43;4.13;;;2.10;;
28834;SDS011;15969;51.536;11.884;2023-02-05T07:16:09;3.77;;;2.40;;
28834;SDS011;15969;51.536;11.884;2023-02-05T07:18:35;4.43;;;2.50;;
28834;SDS011;15969;51.536;11.884;2023-02-05T07:21:04;4.23;;;2.43;;
28834;SDS011;15969;51.536;11.884;2023-02-05T07:23:34;3.13;;;2.20;;
28834;SDS011;15969;51.536;11.884;2023-02-05T07:26:34;4.77;;;2.33;;
28834;SDS011;15969;51.536;11.884;2023-02-05T07:28:53;3.33;;;2.50;;
28834;SDS011;15969;51.536;11.884;2023-02-05T07:31:19;4.27;;;2.67;;
28834;SDS011;15969;51.536;11.884;2023-02-05T07:33:45;3.33;;;2.33;;
28834;SDS011;15969;51.536;11.884;2023-02-05T07:36:12;4.37;;;2.70;;
28834;SDS011;15969;51.536;11.884;2023-02-05T07:38:41;5.00;;;3.40;;
28834;SDS011;15969;51.536;11.884;2023-02-05T07:41:09;5.93;;;2.97;;
28834;SDS011;15969;51.536;11.884;2023-02-05T07:43:37;3.90;;;2.70;;
28834;SDS011;15969;51.536;11.884;2023-02-05T07:46:05;4.93;;;2.90;;
28834;SDS011;15969;51.536;11.884;2023-02-05T07:48:33;3.83;;;2.70;;
28834;SDS011;15969;51.536;11.884;2023-02-05T07:51:00;4.97;;;2.70;;
28834;SDS011;15969;51.536;11.884;2023-02-05T07:53:26;5.03;;;2.97;;
28834;SDS011;15969;51.536;11.884;2023-02-05T07:55:52;6.93;;;2.70;;
28834;SDS011;15969;51.536;11.884;2023-02-05T07:58:18;4.77;;;2.70;;
28834;SDS011;15969;51.536;11.884;2023-02-05T08:00:44;4.23;;;2.93;;
28834;SDS011;15969;51.536;11.884;2023-02-05T08:03:10;5.47;;;2.83;;
28834;SDS011;15969;51.536;11.884;2023-02-05T08:05:36;4.67;;;3.00;;
28834;SDS011;15969;51.536;11.884;2023-02-05T08:08:03;4.80;;;3.13;;
28834;SDS011;15969;51.536;11.884;2023-02-05T08:10:29;6.37;;;3.67;;
28834;SDS011;15969;51.536;11.884;2023-02-05T08:12:54;5.00;;;3.50;;
28834;SDS011;15969;51.536;11.884;2023-02-05T08:15:20;5.20;;;3.60;;
28834;SDS011;15969;51.536;11.884;2023-02-05T08:17:46;5.60;;;3.67;;
28834;SDS011;15969;51.536;11.884;2023-02-05T08:20:12;7.27;;;4.10;;
28834;SDS011;15969;51.536;11.884;2023-02-05T08:22:39;4.33;;;3.57;;
28834;SDS011;15969;51.536;11.884;2023-02-05T08:25:07;4.57;;;3.30;;
28834;SDS011;15969;51.536;11.884;2023-02-05T08:27:36;4.63;;;3.37;;
28834;SDS011;15969;51.536;11.884;2023-02-05T08:30:04;5.50;;;3.60;;
28834;SDS011;15969;51.536;11.884;2023-02-05T08:32:32;6.50;;;4.67;;
28834;SDS011;15969;51.536;11.884;2023-02-05T08:34:57;4.83;;;3.70;;
28834;SDS011;15969;51.536;11.884;2023-02-05T08:37:23;4.77;;;3.73;;
28834;SDS011;15969;51.536;11.884;2023-02-05T08:39:49;6.20;;;4.30;;
28834;SDS011;15969;51.536;11.884;2023-02-05T08:42:15;6.20;;;4.63;;
28834;SDS011;15969;51.536;11.884;2023-02-05T08:44:41;6.50;;;4.27;;
28834;SDS011;15969;51.536;11.884;2023-02-05T08:47:07;5.27;;;4.00;;
28834;SDS011;15969;51.536;11.884;2023-02-05T08:49:32;6.27;;;4.50;;
28834;SDS011;15969;51.536;11.884;2023-02-05T08:51:58;6.37;;;4.40;;
28834;SDS011;15969;51.536;11.884;2023-02-05T08:54:24;4.13;;;3.70;;
28834;SDS011;15969;51.536;11.884;2023-02-05T08:56:51;6.27;;;4.50;;
28834;SDS011;15969;51.536;11.884;2023-02-05T08:59:16;6.20;;;4.80;;
28834;SDS011;15969;51.536;11.884;2023-02-05T09:01:43;5.87;;;4.77;;
28834;SDS011;15969;51.536;11.884;2023-02-05T09:04:16;5.77;;;4.23;;
28834;SDS011;15969;51.536;11.884;2023-02-05T09:06:45;6.17;;;4.73;;
28834;SDS011;15969;51.536;11.884;2023-02-05T09:09:11;7.57;;;5.33;;
28834;SDS011;15969;51.536;11.884;2023-02-05T09:11:37;7.87;;;4.83;;
28834;SDS011;15969;51.536;11.884;2023-02-05T09:14:04;7.23;;;4.87;;
28834;SDS011;15969;51.536;11.884;2023-02-05T09:16:30;8.97;;;5.20;;
28834;SDS011;15969;51.536;11.884;2023-02-05T09:18:56;5.73;;;5.13;;
28834;SDS011;15969;51.536;11.884;2023-02-05T09:21:23;8.73;;;5.57;;
28834;SDS011;15969;51.536;11.884;2023-02-05T09:23:50;6.83;;;5.80;;
28834;SDS011;15969;51.536;11.884;2023-02-05T09:26:17;7.53;;;5.57;;
28834;SDS011;15969;51.536;11.884;2023-02-05T09:28:43;7.87;;;6.00;;
28834;SDS011;15969;51.536;11.884;2023-02-05T09:31:11;7.27;;;5.63;;
28834;SDS011;15969;51.536;11.884;2023-02-05T09:33:41;8.87;;;6.07;;
28834;SDS011;15969;51.536;11.884;2023-02-05T09:36:08;8.33;;;6.17;;
28834;SDS011;15969;51.536;11.884;2023-02-05T09:38:40;8.30;;;6.07;;
28834;SDS011;15969;51.536;11.884;2023-02-05T09:52:35;8.23;;;6.37;;
28834;SDS011;15969;51.536;11.884;2023-02-05T09:55:04;10.47;;;6.47;;
28834;SDS011;15969;51.536;11.884;2023-02-05T09:57:43;9.33;;;5.90;;
28834;SDS011;15969;51.536;11.884;2023-02-05T10:00:15;8.97;;;6.20;;
28834;SDS011;15969;51.536;11.884;2023-02-05T10:02:56;6.23;;;5.27;;
28834;SDS011;15969;51.536;11.884;2023-02-05T10:06:10;9.13;;;5.73;;
28834;SDS011;15969;51.536;11.884;2023-02-05T10:14:50;11.00;;;5.87;;
28834;SDS011;15969;51.536;11.884;2023-02-05T10:24:17;7.20;;;6.10;;
28834;SDS011;15969;51.536;11.884;2023-02-05T10:29:58;9.13;;;6.37;;
28834;SDS011;15969;51.536;11.884;2023-02-05T10:35:23;11.10;;;6.60;;
28834;SDS011;15969;51.536;11.884;2023-02-05T10:38:22;9.07;;;7.27;;
28834;SDS011;15969;51.536;11.884;2023-02-05T10:40:51;8.90;;;6.43;;
28834;SDS011;15969;51.536;11.884;2023-02-05T10:43:26;9.17;;;6.40;;
28834;SDS011;15969;51.536;11.884;2023-02-05T10:46:01;7.27;;;6.07;;
28834;SDS011;15969;51.536;11.884;2023-02-05T10:51:15;8.57;;;6.27;;
28834;SDS011;15969;51.536;11.884;2023-02-05T10:53:48;7.77;;;5.43;;
28834;SDS011;15969;51.536;11.884;2023-02-05T10:56:17;7.87;;;5.50;;
28834;SDS011;15969;51.536;11.884;2023-02-05T11:01:19;8.23;;;6.17;;
28834;SDS011;15969;51.536;11.884;2023-02-05T11:03:58;7.73;;;6.73;;
28834;SDS011;15969;51.536;11.884;2023-02-05T11:06:30;9.20;;;6.07;;
28834;SDS011;15969;51.536;11.884;2023-02-05T11:11:53;7.93;;;6.67;;
28834;SDS011;15969;51.536;11.884;2023-02-05T11:14:24;7.87;;;6.27;;
28834;SDS011;15969;51.536;11.884;2023-02-05T11:19:54;9.93;;;6.60;;
28834;SDS011;15969;51.536;11.884;2023-02-05T11:22:43;8.57;;;7.10;;
28834;SDS011;15969;51.536;11.884;2023-02-05T11:25:13;11.47;;;5.57;;
28834;SDS011;15969;51.536;11.884;2023-02-05T11:27:56;8.00;;;6.07;;
28834;SDS011;15969;51.536;11.884;2023-02-05T11:30:25;7.23;;;6.27;;
28834;SDS011;15969;51.536;11.884;2023-02-05T11:33:15;6.93;;;5.87;;
28834;SDS011;15969;51.536;11.884;2023-02-05T11:38:30;8.30;;;5.93;;
28834;SDS011;15969;51.536;11.884;2023-02-05T11:41:02;8.67;;;5.53;;
28834;SDS011;15969;51.536;11.884;2023-02-05T11:43:34;5.87;;;5.30;;
28834;SDS011;15969;51.536;11.884;2023-02-05T11:46:15;8.57;;;5.67;;
28834;SDS011;15969;51.536;11.884;2023-02-05T11:48:51;7.27;;;5.23;;
28834;SDS011;15969;51.536;11.884;2023-02-05T11:54:23;7.17;;;5.73;;
28834;SDS011;15969;51.536;11.884;2023-02-05T11:56:58;6.33;;;5.40;;
28834;SDS011;15969;51.536;11.884;2023-02-05T11:59:25;7.97;;;5.60;;
28834;SDS011;15969;51.536;11.884;2023-02-05T12:01:51;6.53;;;5.47;;
28834;SDS011;15969;51.536;11.884;2023-02-05T12:04:18;8.97;;;5.60;;
28834;SDS011;15969;51.536;11.884;2023-02-05T12:06:57;7.60;;;5.50;;
28834;SDS011;15969;51.536;11.884;2023-02-05T12:09:30;6.33;;;5.30;;
28834;SDS011;15969;51.536;11.884;2023-02-05T12:12:05;6.20;;;5.60;;
28834;SDS011;15969;51.536;11.884;2023-02-05T12:15:02;8.80;;;5.93;;
28834;SDS011;15969;51.536;11.884;2023-02-05T12:17:57;7.87;;;6.03;;
28834;SDS011;15969;51.536;11.884;2023-02-05T12:26:48;8.57;;;5.87;;
28834;SDS011;15969;51.536;11.884;2023-02-05T12:32:20;8.47;;;5.97;;
28834;SDS011;15969;51.536;11.884;2023-02-05T12:46:04;8.53;;;6.40;;
28834;SDS011;15969;51.536;11.884;2023-02-05T12:54:48;10.03;;;6.90;;
28834;SDS011;15969;51.536;11.884;2023-02-05T12:57:41;8.40;;;6.40;;
28834;SDS011;15969;51.536;11.884;2023-02-05T13:00:31;8.57;;;6.10;;
28834;SDS011;15969;51.536;11.884;2023-02-05T13:03:48;8.80;;;6.07;;
28834;SDS011;15969;51.536;11.884;2023-02-05T13:06:17;6.27;;;5.63;;
28834;SDS011;15969;51.536;11.884;2023-02-05T13:08:52;8.73;;;6.47;;
28834;SDS011;15969;51.536;11.884;2023-02-05T13:11:48;9.17;;;6.20;;
28834;SDS011;15969;51.536;11.884;2023-02-05T13:17:25;7.87;;;5.97;;
28834;SDS011;15969;51.536;11.884;2023-02-05T13:19:58;7.33;;;6.00;;
28834;SDS011;15969;51.536;11.884;2023-02-05T13:22:38;7.50;;;6.40;;
28834;SDS011;15969;51.536;11.884;2023-02-05T13:25:37;7.40;;;5.87;;
28834;SDS011;15969;51.536;11.884;2023-02-05T13:31:15;6.37;;;5.60;;
28834;SDS011;15969;51.536;11.884;2023-02-05T13:33:50;9.23;;;5.97;;
28834;SDS011;15969;51.536;11.884;2023-02-05T13:44:54;5.57;;;4.63;;
28834;SDS011;15969;51.536;11.884;2023-02-05T13:47:56;6.07;;;4.50;;
28834;SDS011;15969;51.536;11.884;2023-02-05T13:51:03;4.37;;;3.97;;
28834;SDS011;15969;51.536;11.884;2023-02-05T13:59:40;4.83;;;4.33;;
28834;SDS011;15969;51.536;11.884;2023-02-05T14:02:31;5.87;;;4.40;;
28834;SDS011;15969;51.536;11.884;2023-02-05T14:05:04;5.63;;;4.07;;
28834;SDS011;15969;51.536;11.884;2023-02-05T14:07:37;5.67;;;4.47;;
28834;SDS011;15969;51.536;11.884;2023-02-05T14:10:29;7.07;;;4.30;;
28834;SDS011;15969;51.536;11.884;2023-02-05T14:13:09;6.57;;;3.90;;
28834;SDS011;15969;51.536;11.884;2023-02-05T14:15:44;6.10;;;3.93;;
28834;SDS011;15969;51.536;11.884;2023-02-05T14:23:59;4.90;;;3.20;;
28834;SDS011;15969;51.536;11.884;2023-02-05T14:27:03;4.43;;;3.10;;
28834;SDS011;15969;51.536;11.884;2023-02-05T14:33:01;3.33;;;2.97;;
28834;SDS011;15969;51.536;11.884;2023-02-05T14:35:49;4.23;;;3.00;;
28834;SDS011;15969;51.536;11.884;2023-02-05T14:38:22;4.77;;;3.33;;
28834;SDS011;15969;51.536;11.884;2023-02-05T14:41:14;3.70;;;3.07;;
28834;SDS011;15969;51.536;11.884;2023-02-05T14:43:44;4.57;;;3.00;;
28834;SDS011;15969;51.536;11.884;2023-02-05T14:46:27;3.57;;;3.17;;
28834;SDS011;15969;51.536;11.884;2023-02-05T14:49:01;3.00;;;2.57;;
28834;SDS011;15969;51.536;11.884;2023-02-05T14:51:31;2.90;;;2.50;;
28834;SDS011;15969;51.536;11.884;2023-02-05T14:54:17;3.30;;;3.00;;
28834;SDS011;15969;51.536;11.884;2023-02-05T14:59:18;4.07;;;2.90;;
28834;SDS011;15969;51.536;11.884;2023-02-05T15:01:53;4.53;;;3.60;;
28834;SDS011;15969;51.536;11.884;2023-02-05T15:04:22;3.67;;;2.73;;
28834;SDS011;15969;51.536;11.884;2023-02-05T15:07:14;3.30;;;2.70;;
28834;SDS011;15969;51.536;11.884;2023-02-05T15:09:50;4.27;;;3.30;;
28834;SDS011;15969;51.536;11.884;2023-02-05T15:15:35;4.43;;;2.80;;
28834;SDS011;15969;51.536;11.884;2023-02-05T15:18:02;3.37;;;2.47;;
28834;SDS011;15969;51.536;11.884;2023-02-05T15:20:44;4.83;;;2.73;;
28834;SDS011;15969;51.536;11.884;2023-02-05T15:23:16;5.57;;;2.50;;
28834;SDS011;15969;51.536;11.884;2023-02-05T15:25:54;2.90;;;2.23;;
28834;SDS011;15969;51.536;11.884;2023-02-05T15:28:44;2.37;;;2.10;;
28834;SDS011;15969;51.536;11.884;2023-02-05T15:31:27;3.43;;;2.10;;
28834;SDS011;15969;51.536;11.884;2023-02-05T15:34:06;2.73;;;2.33;;
28834;SDS011;15969;51.536;11.884;2023-02-05T15:37:10;2.87;;;2.37;;
28834;SDS011;15969;51.536;11.884;2023-02-05T15:42:41;3.93;;;2.63;;
28834;SDS011;15969;51.536;11.884;2023-02-05T15:45:22;3.27;;;2.57;;
28834;SDS011;15969;51.536;11.884;2023-02-05T15:47:56;3.87;;;2.63;;
28834;SDS011;15969;51.536;11.884;2023-02-05T15:50:36;2.67;;;2.33;;
28834;SDS011;15969;51.536;11.884;2023-02-05T15:55:57;3.10;;;2.50;;
28834;SDS011;15969;51.536;11.884;2023-02-05T15:58:47;3.97;;;2.70;;
28834;SDS011;15969;51.536;11.884;2023-02-05T16:01:35;4.83;;;3.33;;
28834;SDS011;15969;51.536;11.884;2023-02-05T16:07:15;4.17;;;3.20;;
28834;SDS011;15969;51.536;11.884;2023-02-05T16:09:55;4.00;;;2.70;;
28834;SDS011;15969;51.536;11.884;2023-02-05T16:12:24;3.60;;;3.13;;
28834;SDS011;15969;51.536;11.884;2023-02-05T16:14:57;3.93;;;2.77;;
28834;SDS011;15969;51.536;11.884;2023-02-05T16:17:27;4.33;;;2.60;;
28834;SDS011;15969;51.536;11.884;2023-02-05T16:25:56;3.93;;;2.93;;
28834;SDS011;15969;51.536;11.884;2023-02-05T16:28:31;4.97;;;3.37;;
28834;SDS011;15969;51.536;11.884;2023-02-05T16:31:04;3.90;;;3.20;;
28834;SDS011;15969;51.536;11.884;2023-02-05T16:33:32;3.33;;;2.87;;
28834;SDS011;15969;51.536;11.884;2023-02-05T16:36:17;3.97;;;3.10;;
28834;SDS011;15969;51.536;11.884;2023-02-05T16:38:51;5.23;;;3.27;;
28834;SDS011;15969;51.536;11.884;2023-02-05T16:41:28;4.33;;;3.13;;
28834;SDS011;15969;51.536;11.884;2023-02-05T16:44:00;9.30;;;3.93;;
28834;SDS011;15969;51.536;11.884;2023-02-05T16:46:30;5.43;;;3.47;;
28834;SDS011;15969;51.536;11.884;2023-02-05T16:56:52;4.90;;;3.30;;
28834;SDS011;15969;51.536;11.884;2023-02-05T16:59:52;4.97;;;3.40;;
28834;SDS011;15969;51.536;11.884;2023-02-05T17:02:25;4.10;;;3.50;;
28834;SDS011;15969;51.536;11.884;2023-02-05T17:05:04;4.63;;;3.77;;
28834;SDS011;15969;51.536;11.884;2023-02-05T17:07:51;4.73;;;3.50;;
28834;SDS011;15969;51.536;11.884;2023-02-05T17:10:28;5.20;;;3.63;;
28834;SDS011;15969;51.536;11.884;2023-02-05T17:12:58;8.07;;;4.00;;
28834;SDS011;15969;51.536;11.884;2023-02-05T17:15:36;5.47;;;3.57;;
28834;SDS011;15969;51.536;11.884;2023-02-05T17:21:19;5.90;;;4.03;;
28834;SDS011;15969;51.536;11.884;2023-02-05T17:23:51;5.10;;;3.97;;
28834;SDS011;15969;51.536;11.884;2023-02-05T17:26:17;4.53;;;4.13;;
28834;SDS011;15969;51.536;11.884;2023-02-05T17:28:54;5.53;;;4.03;;
28834;SDS011;15969;51.536;11.884;2023-02-05T17:31:23;5.00;;;3.80;;
28834;SDS011;15969;51.536;11.884;2023-02-05T17:33:54;4.50;;;3.87;;